sensor_id;sensor_type;location;lat;lon;timestamp;pressure;altitude;pressure_sealevel;temperature;humidity
60246;BME280;46107;53.356;-1.524;2022-08-06T00:00:29;100171.69;;;11.20;51.26
60246;BME280;46107;53.356;-1.524;2022-08-06T00:02:56;100170.19;;;10.97;51.99
60246;BME280;46107;53.356;-1.524;2022-08-06T00:05:23;100170.42;;;11.46;51.16
60246;BME280;46107;53.356;-1.524;2022-08-06T00:07:50;100171.78;;;12.02;49.64
60246;BME280;46107;53.356;-1.524;2022-08-06T00:10:19;100173.62;;;12.46;49.52
60246;BME280;46107;53.356;-1.524;2022-08-06T00:12:46;100169.12;;;10.86;51.97
60246;BME280;46107;53.356;-1.524;2022-08-06T00:15:15;100170.91;;;9.87;54.12
60246;BME280;46107;53.356;-1.524;2022-08-06T00:17:44;100170.04;;;10.80;52.58
60246;BME280;46107;53.356;-1.524;2022-08-06T00:20:12;100175.89;;;10.25;53.89
60246;BME280;46107;53.356;-1.524;2022-08-06T00:22:40;100176.60;;;10.84;53.04
60246;BME280;46107;53.356;-1.524;2022-08-06T00:25:08;100180.79;;;9.35;57.25
60246;BME280;46107;53.356;-1.524;2022-08-06T00:27:36;100185.11;;;10.62;54.87
60246;BME280;46107;53.356;-1.524;2022-08-06T00:30:05;100187.15;;;8.99;58.42
60246;BME280;46107;53.356;-1.524;2022-08-06T00:32:33;100187.92;;;9.15;58.38
60246;BME280;46107;53.356;-1.524;2022-08-06T00:35:01;100187.46;;;9.76;57.97
60246;BME280;46107;53.356;-1.524;2022-08-06T00:37:28;100187.60;;;10.43;56.31
60246;BME280;46107;53.356;-1.524;2022-08-06T00:39:56;100185.88;;;10.61;56.18
60246;BME280;46107;53.356;-1.524;2022-08-06T00:42:24;100187.82;;;10.78;54.70
60246;BME280;46107;53.356;-1.524;2022-08-06T00:44:52;100187.37;;;9.80;56.95
60246;BME280;46107;53.356;-1.524;2022-08-06T00:47:19;100190.28;;;9.43;58.59
60246;BME280;46107;53.356;-1.524;2022-08-06T00:49:46;100191.14;;;9.26;60.00
60246;BME280;46107;53.356;-1.524;2022-08-06T00:52:14;100190.10;;;9.02;60.12
60246;BME280;46107;53.356;-1.524;2022-08-06T00:54:41;100183.23;;;9.90;58.35
60246;BME280;46107;53.356;-1.524;2022-08-06T00:57:08;100184.36;;;11.00;55.67
60246;BME280;46107;53.356;-1.524;2022-08-06T00:59:35;100180.46;;;10.49;56.41
60246;BME280;46107;53.356;-1.524;2022-08-06T01:02:03;100173.24;;;11.52;53.50
60246;BME280;46107;53.356;-1.524;2022-08-06T01:04:31;100181.87;;;10.13;56.15
60246;BME280;46107;53.356;-1.524;2022-08-06T01:06:58;100184.95;;;9.71;58.44
60246;BME280;46107;53.356;-1.524;2022-08-06T01:09:25;100191.97;;;9.54;59.21
60246;BME280;46107;53.356;-1.524;2022-08-06T01:11:52;100194.65;;;9.13;60.02
60246;BME280;46107;53.356;-1.524;2022-08-06T01:14:20;100192.57;;;10.11;57.72
60246;BME280;46107;53.356;-1.524;2022-08-06T01:16:51;100190.60;;;9.67;57.73
60246;BME280;46107;53.356;-1.524;2022-08-06T01:19:37;100190.79;;;10.47;56.29
60246;BME280;46107;53.356;-1.524;2022-08-06T01:22:18;100189.88;;;10.63;55.50
60246;BME280;46107;53.356;-1.524;2022-08-06T01:25:05;100192.21;;;9.97;56.96
60246;BME280;46107;53.356;-1.524;2022-08-06T01:27:42;100192.40;;;10.13;57.16
60246;BME280;46107;53.356;-1.524;2022-08-06T01:30:16;100190.17;;;10.49;55.90
60246;BME280;46107;53.356;-1.524;2022-08-06T01:32:50;100192.21;;;11.38;54.18
60246;BME280;46107;53.356;-1.524;2022-08-06T01:35:24;100193.81;;;12.41;50.55
60246;BME280;46107;53.356;-1.524;2022-08-06T01:38:03;100197.50;;;10.16;55.25
60246;BME280;46107;53.356;-1.524;2022-08-06T01:40:35;100197.57;;;10.32;55.22
60246;BME280;46107;53.356;-1.524;2022-08-06T01:43:06;100197.43;;;10.32;55.71
60246;BME280;46107;53.356;-1.524;2022-08-06T01:45:35;100195.22;;;9.96;57.25
60246;BME280;46107;53.356;-1.524;2022-08-06T01:48:05;100192.50;;;10.45;56.44
60246;BME280;46107;53.356;-1.524;2022-08-06T01:50:38;100190.87;;;9.99;57.96
60246;BME280;46107;53.356;-1.524;2022-08-06T01:53:07;100186.42;;;11.30;53.94
60246;BME280;46107;53.356;-1.524;2022-08-06T01:55:40;100190.80;;;10.47;55.48
60246;BME280;46107;53.356;-1.524;2022-08-06T01:58:08;100187.60;;;11.11;54.21
60246;BME280;46107;53.356;-1.524;2022-08-06T02:00:39;100188.28;;;10.35;55.69
60246;BME280;46107;53.356;-1.524;2022-08-06T02:03:11;100186.77;;;9.96;57.39
60246;BME280;46107;53.356;-1.524;2022-08-06T02:05:40;100190.48;;;9.82;57.70
60246;BME280;46107;53.356;-1.524;2022-08-06T02:08:12;100187.58;;;9.09;59.06
60246;BME280;46107;53.356;-1.524;2022-08-06T02:10:40;100185.64;;;9.66;57.40
60246;BME280;46107;53.356;-1.524;2022-08-06T02:13:10;100187.79;;;9.94;56.01
60246;BME280;46107;53.356;-1.524;2022-08-06T02:15:41;100185.54;;;10.21;57.13
60246;BME280;46107;53.356;-1.524;2022-08-06T02:18:10;100186.93;;;10.79;55.32
60246;BME280;46107;53.356;-1.524;2022-08-06T02:20:41;100182.90;;;9.19;58.67
60246;BME280;46107;53.356;-1.524;2022-08-06T02:23:15;100179.61;;;9.93;57.87
60246;BME280;46107;53.356;-1.524;2022-08-06T02:25:44;100177.72;;;9.75;57.50
60246;BME280;46107;53.356;-1.524;2022-08-06T02:28:14;100179.07;;;10.76;55.28
60246;BME280;46107;53.356;-1.524;2022-08-06T02:30:43;100183.98;;;10.41;55.57
60246;BME280;46107;53.356;-1.524;2022-08-06T02:33:12;100183.73;;;9.50;57.79
60246;BME280;46107;53.356;-1.524;2022-08-06T02:35:46;100183.98;;;11.73;53.17
60246;BME280;46107;53.356;-1.524;2022-08-06T02:38:22;100185.69;;;10.80;54.66
60246;BME280;46107;53.356;-1.524;2022-08-06T02:40:55;100185.42;;;10.62;54.09
60246;BME280;46107;53.356;-1.524;2022-08-06T02:43:26;100187.42;;;10.78;54.63
60246;BME280;46107;53.356;-1.524;2022-08-06T02:45:59;100190.02;;;10.23;54.70
60246;BME280;46107;53.356;-1.524;2022-08-06T02:48:34;100187.64;;;11.11;52.66
60246;BME280;46107;53.356;-1.524;2022-08-06T02:51:08;100189.65;;;11.29;52.10
60246;BME280;46107;53.356;-1.524;2022-08-06T02:53:43;100198.37;;;10.65;52.89
60246;BME280;46107;53.356;-1.524;2022-08-06T02:56:13;100193.13;;;11.03;52.63
60246;BME280;46107;53.356;-1.524;2022-08-06T02:58:44;100198.96;;;12.28;50.24
60246;BME280;46107;53.356;-1.524;2022-08-06T03:01:17;100195.50;;;10.87;52.47
60246;BME280;46107;53.356;-1.524;2022-08-06T03:03:47;100197.53;;;10.66;53.66
60246;BME280;46107;53.356;-1.524;2022-08-06T03:06:17;100201.46;;;10.20;54.28
60246;BME280;46107;53.356;-1.524;2022-08-06T03:08:53;100198.73;;;10.25;53.59
60246;BME280;46107;53.356;-1.524;2022-08-06T03:11:22;100193.86;;;11.44;52.63
60246;BME280;46107;53.356;-1.524;2022-08-06T03:13:49;100192.65;;;10.43;53.07
60246;BME280;46107;53.356;-1.524;2022-08-06T03:16:19;100192.78;;;10.69;53.78
60246;BME280;46107;53.356;-1.524;2022-08-06T03:18:49;100195.13;;;10.01;55.84
60246;BME280;46107;53.356;-1.524;2022-08-06T03:21:17;100198.60;;;10.72;53.83
60246;BME280;46107;53.356;-1.524;2022-08-06T03:23:47;100200.97;;;9.83;55.89
60246;BME280;46107;53.356;-1.524;2022-08-06T03:26:16;100202.93;;;9.07;57.92
60246;BME280;46107;53.356;-1.524;2022-08-06T03:28:45;100200.53;;;10.01;55.87
60246;BME280;46107;53.356;-1.524;2022-08-06T03:31:13;100200.23;;;9.56;56.83
60246;BME280;46107;53.356;-1.524;2022-08-06T03:33:41;100203.70;;;9.32;57.78
60246;BME280;46107;53.356;-1.524;2022-08-06T03:36:09;100206.75;;;10.29;55.54
60246;BME280;46107;53.356;-1.524;2022-08-06T03:38:39;100211.57;;;10.55;54.32
60246;BME280;46107;53.356;-1.524;2022-08-06T03:41:09;100213.43;;;10.20;55.30
60246;BME280;46107;53.356;-1.524;2022-08-06T03:43:38;100215.98;;;9.65;56.80
60246;BME280;46107;53.356;-1.524;2022-08-06T03:46:06;100214.82;;;9.80;55.89
60246;BME280;46107;53.356;-1.524;2022-08-06T03:48:38;100218.88;;;10.03;55.89
60246;BME280;46107;53.356;-1.524;2022-08-06T03:51:11;100213.57;;;9.86;55.72
60246;BME280;46107;53.356;-1.524;2022-08-06T03:53:41;100212.02;;;10.77;53.53
60246;BME280;46107;53.356;-1.524;2022-08-06T03:56:11;100215.36;;;10.91;53.07
60246;BME280;46107;53.356;-1.524;2022-08-06T03:58:43;100219.09;;;10.53;53.49
60246;BME280;46107;53.356;-1.524;2022-08-06T04:01:16;100216.25;;;9.72;56.00
60246;BME280;46107;53.356;-1.524;2022-08-06T04:03:44;100217.38;;;9.46;56.60
60246;BME280;46107;53.356;-1.524;2022-08-06T04:06:12;100214.84;;;10.34;53.66
60246;BME280;46107;53.356;-1.524;2022-08-06T04:08:41;100218.35;;;10.96;52.09
60246;BME280;46107;53.356;-1.524;2022-08-06T04:11:09;100220.57;;;11.09;51.87
60246;BME280;46107;53.356;-1.524;2022-08-06T04:13:38;100222.78;;;10.07;53.47
60246;BME280;46107;53.356;-1.524;2022-08-06T04:16:07;100219.04;;;11.52;50.79
60246;BME280;46107;53.356;-1.524;2022-08-06T04:18:37;100221.14;;;11.90;50.28
60246;BME280;46107;53.356;-1.524;2022-08-06T04:21:08;100214.63;;;11.31;51.35
60246;BME280;46107;53.356;-1.524;2022-08-06T04:23:36;100216.95;;;11.59;49.88
60246;BME280;46107;53.356;-1.524;2022-08-06T04:26:06;100218.73;;;11.17;50.63
60246;BME280;46107;53.356;-1.524;2022-08-06T04:28:37;100228.18;;;10.66;51.30
60246;BME280;46107;53.356;-1.524;2022-08-06T04:31:08;100230.96;;;12.03;49.08
60246;BME280;46107;53.356;-1.524;2022-08-06T04:33:37;100234.35;;;11.67;49.66
60246;BME280;46107;53.356;-1.524;2022-08-06T04:36:06;100233.51;;;11.78;49.30
60246;BME280;46107;53.356;-1.524;2022-08-06T04:38:36;100231.87;;;11.16;50.35
60246;BME280;46107;53.356;-1.524;2022-08-06T04:41:04;100230.84;;;10.88;50.47
60246;BME280;46107;53.356;-1.524;2022-08-06T04:43:32;100224.45;;;11.61;49.21
60246;BME280;46107;53.356;-1.524;2022-08-06T04:45:59;100224.90;;;11.71;48.68
60246;BME280;46107;53.356;-1.524;2022-08-06T04:48:29;100226.11;;;11.49;48.63
60246;BME280;46107;53.356;-1.524;2022-08-06T04:50:57;100225.30;;;10.85;49.91
60246;BME280;46107;53.356;-1.524;2022-08-06T04:53:24;100220.54;;;9.70;52.29
60246;BME280;46107;53.356;-1.524;2022-08-06T04:55:52;100222.72;;;10.35;51.53
60246;BME280;46107;53.356;-1.524;2022-08-06T04:58:19;100227.19;;;10.66;50.71
60246;BME280;46107;53.356;-1.524;2022-08-06T05:00:47;100230.74;;;10.78;51.38
60246;BME280;46107;53.356;-1.524;2022-08-06T05:03:15;100237.52;;;10.48;52.01
60246;BME280;46107;53.356;-1.524;2022-08-06T05:05:46;100242.28;;;9.73;53.91
60246;BME280;46107;53.356;-1.524;2022-08-06T05:08:15;100243.91;;;10.36;52.09
60246;BME280;46107;53.356;-1.524;2022-08-06T05:10:47;100244.43;;;11.05;51.53
60246;BME280;46107;53.356;-1.524;2022-08-06T05:13:20;100248.85;;;10.38;52.74
60246;BME280;46107;53.356;-1.524;2022-08-06T05:15:54;100252.66;;;10.37;52.71
60246;BME280;46107;53.356;-1.524;2022-08-06T05:18:25;100251.96;;;10.90;51.31
60246;BME280;46107;53.356;-1.524;2022-08-06T05:20:56;100252.68;;;10.86;51.45
60246;BME280;46107;53.356;-1.524;2022-08-06T05:23:27;100253.03;;;11.06;51.34
60246;BME280;46107;53.356;-1.524;2022-08-06T05:25:54;100253.07;;;12.24;49.60
60246;BME280;46107;53.356;-1.524;2022-08-06T05:28:21;100259.36;;;11.43;51.19
60246;BME280;46107;53.356;-1.524;2022-08-06T05:30:50;100260.93;;;11.63;49.93
60246;BME280;46107;53.356;-1.524;2022-08-06T05:33:26;100268.49;;;11.87;49.60
60246;BME280;46107;53.356;-1.524;2022-08-06T05:35:55;100265.50;;;12.87;48.47
60246;BME280;46107;53.356;-1.524;2022-08-06T05:38:22;100262.98;;;11.54;51.16
60246;BME280;46107;53.356;-1.524;2022-08-06T05:40:49;100261.89;;;12.45;49.42
60246;BME280;46107;53.356;-1.524;2022-08-06T05:43:17;100260.63;;;12.40;49.31
60246;BME280;46107;53.356;-1.524;2022-08-06T05:45:45;100257.31;;;11.92;50.54
60246;BME280;46107;53.356;-1.524;2022-08-06T05:48:15;100262.41;;;11.51;51.47
60246;BME280;46107;53.356;-1.524;2022-08-06T05:50:48;100268.46;;;12.81;49.58
60246;BME280;46107;53.356;-1.524;2022-08-06T05:53:21;100272.12;;;13.23;48.84
60246;BME280;46107;53.356;-1.524;2022-08-06T05:55:55;100270.92;;;13.03;49.31
60246;BME280;46107;53.356;-1.524;2022-08-06T05:58:28;100272.83;;;13.33;48.67
60246;BME280;46107;53.356;-1.524;2022-08-06T06:00:59;100268.57;;;13.97;46.95
60246;BME280;46107;53.356;-1.524;2022-08-06T06:03:28;100272.88;;;14.25;46.60
60246;BME280;46107;53.356;-1.524;2022-08-06T06:05:58;100277.77;;;14.54;45.52
60246;BME280;46107;53.356;-1.524;2022-08-06T06:08:27;100282.36;;;13.73;47.42
60246;BME280;46107;53.356;-1.524;2022-08-06T06:10:56;100284.68;;;13.63;47.26
60246;BME280;46107;53.356;-1.524;2022-08-06T06:13:25;100291.48;;;14.11;46.60
60246;BME280;46107;53.356;-1.524;2022-08-06T06:15:57;100299.91;;;12.60;48.61
60246;BME280;46107;53.356;-1.524;2022-08-06T06:18:38;100296.40;;;13.33;46.92
60246;BME280;46107;53.356;-1.524;2022-08-06T06:21:13;100298.47;;;13.60;46.52
60246;BME280;46107;53.356;-1.524;2022-08-06T06:23:49;100299.77;;;14.12;45.96
60246;BME280;46107;53.356;-1.524;2022-08-06T06:26:26;100309.11;;;13.58;46.75
60246;BME280;46107;53.356;-1.524;2022-08-06T06:29:01;100307.74;;;13.60;46.92
60246;BME280;46107;53.356;-1.524;2022-08-06T06:31:35;100308.27;;;12.99;47.75
60246;BME280;46107;53.356;-1.524;2022-08-06T06:34:08;100304.09;;;13.65;46.58
60246;BME280;46107;53.356;-1.524;2022-08-06T06:36:47;100302.57;;;13.96;45.15
60246;BME280;46107;53.356;-1.524;2022-08-06T06:39:23;100309.59;;;12.68;46.47
60246;BME280;46107;53.356;-1.524;2022-08-06T06:41:59;100310.55;;;13.29;46.66
60246;BME280;46107;53.356;-1.524;2022-08-06T06:44:35;100310.65;;;13.48;45.80
60246;BME280;46107;53.356;-1.524;2022-08-06T06:47:09;100307.34;;;13.72;44.53
60246;BME280;46107;53.356;-1.524;2022-08-06T06:49:48;100308.63;;;12.25;47.08
60246;BME280;46107;53.356;-1.524;2022-08-06T06:52:21;100309.93;;;13.07;46.55
60246;BME280;46107;53.356;-1.524;2022-08-06T06:54:59;100317.78;;;13.01;44.66
60246;BME280;46107;53.356;-1.524;2022-08-06T06:57:31;100319.15;;;12.98;45.99
60246;BME280;46107;53.356;-1.524;2022-08-06T07:00:03;100322.80;;;13.43;45.61
60246;BME280;46107;53.356;-1.524;2022-08-06T07:02:33;100315.90;;;14.90;43.20
60246;BME280;46107;53.356;-1.524;2022-08-06T07:05:04;100319.02;;;15.67;42.59
60246;BME280;46107;53.356;-1.524;2022-08-06T07:07:33;100321.43;;;15.16;44.33
60246;BME280;46107;53.356;-1.524;2022-08-06T07:10:04;100323.40;;;14.22;43.57
60246;BME280;46107;53.356;-1.524;2022-08-06T07:12:33;100330.59;;;12.83;46.65
60246;BME280;46107;53.356;-1.524;2022-08-06T07:15:02;100326.38;;;14.15;44.62
60246;BME280;46107;53.356;-1.524;2022-08-06T07:17:32;100334.24;;;13.84;44.64
60246;BME280;46107;53.356;-1.524;2022-08-06T07:20:03;100332.27;;;13.93;45.26
60246;BME280;46107;53.356;-1.524;2022-08-06T07:22:32;100330.66;;;14.83;42.97
60246;BME280;46107;53.356;-1.524;2022-08-06T07:25:04;100327.49;;;14.75;43.75
60246;BME280;46107;53.356;-1.524;2022-08-06T07:27:35;100333.68;;;13.99;44.39
60246;BME280;46107;53.356;-1.524;2022-08-06T07:30:05;100323.19;;;14.31;44.53
60246;BME280;46107;53.356;-1.524;2022-08-06T07:32:34;100323.27;;;15.37;42.91
60246;BME280;46107;53.356;-1.524;2022-08-06T07:35:03;100328.09;;;16.07;41.34
60246;BME280;46107;53.356;-1.524;2022-08-06T07:37:32;100330.96;;;15.23;42.92
60246;BME280;46107;53.356;-1.524;2022-08-06T07:40:03;100331.74;;;14.70;42.29
60246;BME280;46107;53.356;-1.524;2022-08-06T07:42:33;100333.40;;;15.61;41.29
60246;BME280;46107;53.356;-1.524;2022-08-06T07:45:04;100332.46;;;15.24;42.62
60246;BME280;46107;53.356;-1.524;2022-08-06T07:47:36;100334.72;;;14.23;44.08
60246;BME280;46107;53.356;-1.524;2022-08-06T07:50:07;100337.21;;;14.93;43.94
60246;BME280;46107;53.356;-1.524;2022-08-06T07:52:39;100339.10;;;15.14;42.98
60246;BME280;46107;53.356;-1.524;2022-08-06T07:55:08;100342.79;;;15.96;42.76
60246;BME280;46107;53.356;-1.524;2022-08-06T07:57:37;100341.34;;;14.81;44.50
60246;BME280;46107;53.356;-1.524;2022-08-06T08:00:08;100347.80;;;16.24;41.59
60246;BME280;46107;53.356;-1.524;2022-08-06T08:02:36;100343.02;;;15.79;42.27
60246;BME280;46107;53.356;-1.524;2022-08-06T08:05:05;100343.50;;;16.76;40.38
60246;BME280;46107;53.356;-1.524;2022-08-06T08:07:33;100343.57;;;17.36;40.05
60246;BME280;46107;53.356;-1.524;2022-08-06T08:10:01;100344.24;;;16.44;40.03
60246;BME280;46107;53.356;-1.524;2022-08-06T08:12:29;100349.50;;;15.76;42.30
60246;BME280;46107;53.356;-1.524;2022-08-06T08:14:58;100350.18;;;15.62;42.72
60246;BME280;46107;53.356;-1.524;2022-08-06T08:17:26;100346.43;;;16.93;40.97
60246;BME280;46107;53.356;-1.524;2022-08-06T08:19:53;100351.82;;;15.37;42.82
60246;BME280;46107;53.356;-1.524;2022-08-06T08:22:21;100349.91;;;15.66;41.86
60246;BME280;46107;53.356;-1.524;2022-08-06T08:24:49;100349.58;;;15.81;42.45
60246;BME280;46107;53.356;-1.524;2022-08-06T08:27:16;100349.46;;;15.65;42.01
60246;BME280;46107;53.356;-1.524;2022-08-06T08:29:44;100343.75;;;17.12;39.16
60246;BME280;46107;53.356;-1.524;2022-08-06T08:32:11;100348.09;;;15.61;40.43
60246;BME280;46107;53.356;-1.524;2022-08-06T08:34:39;100343.42;;;16.08;40.95
60246;BME280;46107;53.356;-1.524;2022-08-06T08:37:06;100345.19;;;14.78;42.01
60246;BME280;46107;53.356;-1.524;2022-08-06T08:39:34;100345.04;;;15.02;42.48
60246;BME280;46107;53.356;-1.524;2022-08-06T08:42:04;100341.09;;;15.48;41.85
60246;BME280;46107;53.356;-1.524;2022-08-06T08:44:32;100338.76;;;14.75;42.75
60246;BME280;46107;53.356;-1.524;2022-08-06T08:47:00;100335.06;;;14.88;40.86
60246;BME280;46107;53.356;-1.524;2022-08-06T08:49:36;100337.59;;;14.59;40.28
60246;BME280;46107;53.356;-1.524;2022-08-06T08:52:07;100342.22;;;13.37;43.69
60246;BME280;46107;53.356;-1.524;2022-08-06T08:54:36;100333.75;;;15.20;42.14
60246;BME280;46107;53.356;-1.524;2022-08-06T08:57:05;100337.70;;;14.76;44.31
60246;BME280;46107;53.356;-1.524;2022-08-06T08:59:35;100334.32;;;15.49;41.67
60246;BME280;46107;53.356;-1.524;2022-08-06T09:02:03;100333.62;;;13.98;42.69
60246;BME280;46107;53.356;-1.524;2022-08-06T09:04:32;100333.86;;;14.86;41.96
60246;BME280;46107;53.356;-1.524;2022-08-06T09:07:01;100336.91;;;16.23;38.96
60246;BME280;46107;53.356;-1.524;2022-08-06T09:09:30;100328.01;;;16.22;38.82
60246;BME280;46107;53.356;-1.524;2022-08-06T09:12:00;100325.40;;;16.90;37.66
60246;BME280;46107;53.356;-1.524;2022-08-06T09:14:28;100330.48;;;15.83;38.59
60246;BME280;46107;53.356;-1.524;2022-08-06T09:16:58;100329.52;;;16.37;39.90
60246;BME280;46107;53.356;-1.524;2022-08-06T09:19:25;100331.75;;;17.24;36.39
60246;BME280;46107;53.356;-1.524;2022-08-06T09:21:54;100332.96;;;17.30;36.89
60246;BME280;46107;53.356;-1.524;2022-08-06T09:24:21;100338.09;;;17.09;38.52
60246;BME280;46107;53.356;-1.524;2022-08-06T09:27:02;100339.20;;;17.43;37.15
60246;BME280;46107;53.356;-1.524;2022-08-06T09:29:30;100339.60;;;17.55;36.79
60246;BME280;46107;53.356;-1.524;2022-08-06T09:31:58;100342.15;;;15.68;39.22
60246;BME280;46107;53.356;-1.524;2022-08-06T09:34:32;100344.03;;;15.56;39.78
60246;BME280;46107;53.356;-1.524;2022-08-06T09:37:00;100347.98;;;15.91;40.14
60246;BME280;46107;53.356;-1.524;2022-08-06T09:39:33;100355.73;;;16.14;39.91
60246;BME280;46107;53.356;-1.524;2022-08-06T09:42:01;100353.87;;;15.73;39.92
60246;BME280;46107;53.356;-1.524;2022-08-06T09:44:30;100348.31;;;17.20;39.47
60246;BME280;46107;53.356;-1.524;2022-08-06T09:46:57;100352.23;;;15.89;40.03
60246;BME280;46107;53.356;-1.524;2022-08-06T09:49:25;100346.10;;;16.96;39.71
60246;BME280;46107;53.356;-1.524;2022-08-06T09:52:11;100345.08;;;16.27;38.61
60246;BME280;46107;53.356;-1.524;2022-08-06T09:54:38;100352.66;;;16.10;38.85
60246;BME280;46107;53.356;-1.524;2022-08-06T09:57:06;100354.27;;;15.88;38.68
60246;BME280;46107;53.356;-1.524;2022-08-06T09:59:43;100356.68;;;16.17;40.06
60246;BME280;46107;53.356;-1.524;2022-08-06T10:02:14;100355.94;;;16.79;38.94
60246;BME280;46107;53.356;-1.524;2022-08-06T10:04:43;100348.46;;;16.78;38.20
60246;BME280;46107;53.356;-1.524;2022-08-06T10:07:10;100356.22;;;15.77;39.84
60246;BME280;46107;53.356;-1.524;2022-08-06T10:09:50;100352.73;;;16.59;39.40
60246;BME280;46107;53.356;-1.524;2022-08-06T10:12:19;100351.65;;;16.55;38.00
60246;BME280;46107;53.356;-1.524;2022-08-06T10:14:47;100354.47;;;16.52;37.96
60246;BME280;46107;53.356;-1.524;2022-08-06T10:17:16;100359.48;;;15.94;39.44
60246;BME280;46107;53.356;-1.524;2022-08-06T10:19:45;100359.53;;;16.42;39.25
60246;BME280;46107;53.356;-1.524;2022-08-06T10:22:14;100355.45;;;16.76;39.83
60246;BME280;46107;53.356;-1.524;2022-08-06T10:24:43;100357.32;;;16.60;38.94
60246;BME280;46107;53.356;-1.524;2022-08-06T10:27:13;100365.08;;;16.17;39.45
60246;BME280;46107;53.356;-1.524;2022-08-06T10:29:42;100356.63;;;16.32;39.04
60246;BME280;46107;53.356;-1.524;2022-08-06T10:32:14;100360.57;;;15.77;38.17
60246;BME280;46107;53.356;-1.524;2022-08-06T10:34:44;100355.82;;;17.09;37.64
60246;BME280;46107;53.356;-1.524;2022-08-06T10:37:12;100355.73;;;17.47;37.01
60246;BME280;46107;53.356;-1.524;2022-08-06T10:39:48;100354.23;;;16.74;37.25
60246;BME280;46107;53.356;-1.524;2022-08-06T10:42:18;100352.15;;;16.94;38.73
60246;BME280;46107;53.356;-1.524;2022-08-06T10:44:48;100357.70;;;17.70;36.07
60246;BME280;46107;53.356;-1.524;2022-08-06T10:47:16;100350.99;;;17.10;37.55
60246;BME280;46107;53.356;-1.524;2022-08-06T10:49:43;100341.86;;;18.39;35.44
60246;BME280;46107;53.356;-1.524;2022-08-06T10:52:12;100342.13;;;18.64;34.19
60246;BME280;46107;53.356;-1.524;2022-08-06T10:54:40;100346.54;;;18.30;36.13
60246;BME280;46107;53.356;-1.524;2022-08-06T10:57:08;100349.70;;;17.69;36.83
60246;BME280;46107;53.356;-1.524;2022-08-06T10:59:35;100346.57;;;18.81;35.40
60246;BME280;46107;53.356;-1.524;2022-08-06T11:02:12;100347.75;;;18.64;35.06
60246;BME280;46107;53.356;-1.524;2022-08-06T11:04:47;100349.73;;;19.80;33.17
60246;BME280;46107;53.356;-1.524;2022-08-06T11:07:32;100351.09;;;18.90;35.15
60246;BME280;46107;53.356;-1.524;2022-08-06T11:10:21;100348.33;;;18.58;35.33
60246;BME280;46107;53.356;-1.524;2022-08-06T11:12:54;100345.30;;;18.41;36.24
60246;BME280;46107;53.356;-1.524;2022-08-06T11:15:24;100346.83;;;18.17;36.36
60246;BME280;46107;53.356;-1.524;2022-08-06T11:17:55;100346.58;;;17.84;36.24
60246;BME280;46107;53.356;-1.524;2022-08-06T11:20:39;100347.72;;;17.24;36.87
60246;BME280;46107;53.356;-1.524;2022-08-06T11:23:23;100348.99;;;17.90;36.25
60246;BME280;46107;53.356;-1.524;2022-08-06T11:25:53;100346.46;;;18.10;35.31
60246;BME280;46107;53.356;-1.524;2022-08-06T11:28:57;100344.23;;;18.92;34.56
60246;BME280;46107;53.356;-1.524;2022-08-06T11:31:37;100340.84;;;18.72;34.07
60246;BME280;46107;53.356;-1.524;2022-08-06T11:34:08;100341.58;;;17.88;35.91
60246;BME280;46107;53.356;-1.524;2022-08-06T11:36:50;100347.25;;;18.25;36.21
60246;BME280;46107;53.356;-1.524;2022-08-06T11:39:19;100350.03;;;18.08;36.25
60246;BME280;46107;53.356;-1.524;2022-08-06T11:41:50;100351.02;;;17.26;37.61
60246;BME280;46107;53.356;-1.524;2022-08-06T11:44:18;100349.46;;;18.25;35.25
60246;BME280;46107;53.356;-1.524;2022-08-06T11:46:48;100347.09;;;17.40;36.17
60246;BME280;46107;53.356;-1.524;2022-08-06T11:49:22;100353.56;;;15.97;39.30
60246;BME280;46107;53.356;-1.524;2022-08-06T11:51:52;100349.42;;;17.91;37.01
60246;BME280;46107;53.356;-1.524;2022-08-06T11:54:23;100340.73;;;18.40;35.09
60246;BME280;46107;53.356;-1.524;2022-08-06T11:57:25;100336.78;;;16.97;38.01
60246;BME280;46107;53.356;-1.524;2022-08-06T12:00:25;100338.49;;;17.72;35.81
60246;BME280;46107;53.356;-1.524;2022-08-06T12:02:56;100334.65;;;16.78;38.07
60246;BME280;46107;53.356;-1.524;2022-08-06T12:05:56;100337.29;;;17.30;38.05
60246;BME280;46107;53.356;-1.524;2022-08-06T12:08:25;100334.86;;;17.34;37.67
60246;BME280;46107;53.356;-1.524;2022-08-06T12:11:27;100327.95;;;16.83;38.70
60246;BME280;46107;53.356;-1.524;2022-08-06T12:13:55;100329.15;;;18.01;37.10
60246;BME280;46107;53.356;-1.524;2022-08-06T12:16:37;100328.25;;;17.65;37.98
60246;BME280;46107;53.356;-1.524;2022-08-06T12:19:12;100326.77;;;16.29;39.36
60246;BME280;46107;53.356;-1.524;2022-08-06T12:21:41;100329.12;;;17.18;38.71
60246;BME280;46107;53.356;-1.524;2022-08-06T12:24:10;100328.40;;;17.73;38.72
60246;BME280;46107;53.356;-1.524;2022-08-06T12:26:38;100323.03;;;17.70;37.21
60246;BME280;46107;53.356;-1.524;2022-08-06T12:29:07;100324.79;;;18.12;38.38
60246;BME280;46107;53.356;-1.524;2022-08-06T12:31:37;100324.51;;;17.25;38.88
60246;BME280;46107;53.356;-1.524;2022-08-06T12:34:05;100325.61;;;17.47;39.02
60246;BME280;46107;53.356;-1.524;2022-08-06T12:36:35;100330.72;;;18.47;37.47
60246;BME280;46107;53.356;-1.524;2022-08-06T12:39:06;100319.69;;;18.67;36.87
60246;BME280;46107;53.356;-1.524;2022-08-06T12:41:37;100322.94;;;18.07;38.60
60246;BME280;46107;53.356;-1.524;2022-08-06T12:44:04;100313.10;;;18.32;39.27
60246;BME280;46107;53.356;-1.524;2022-08-06T12:46:32;100321.04;;;16.91;38.50
60246;BME280;46107;53.356;-1.524;2022-08-06T12:48:59;100320.87;;;17.39;38.32
60246;BME280;46107;53.356;-1.524;2022-08-06T12:51:27;100321.99;;;16.43;40.22
60246;BME280;46107;53.356;-1.524;2022-08-06T12:53:57;100320.93;;;16.19;39.93
60246;BME280;46107;53.356;-1.524;2022-08-06T12:56:36;100318.67;;;17.93;38.35
60246;BME280;46107;53.356;-1.524;2022-08-06T12:59:06;100316.50;;;16.39;39.55